sensor_id;sensor_type;location;lat;lon;timestamp;pressure;altitude;pressure_sealevel;temperature;humidity
80323;BME280;69636;52.372;13.610;2023-04-25T00:01:15;100270.44;;;7.87;75.68
80323;BME280;69636;52.372;13.610;2023-04-25T00:03:41;100273.00;;;7.79;75.15
80323;BME280;69636;52.372;13.610;2023-04-25T00:06:09;100279.13;;;7.79;75.52
80323;BME280;69636;52.372;13.610;2023-04-25T00:08:35;100279.97;;;7.70;75.34
80323;BME280;69636;52.372;13.610;2023-04-25T00:11:01;100274.25;;;7.75;75.21
80323;BME280;69636;52.372;13.610;2023-04-25T00:13:27;100271.53;;;7.57;75.30
80323;BME280;69636;52.372;13.610;2023-04-25T00:15:53;100265.28;;;7.58;75.45
80323;BME280;69636;52.372;13.610;2023-04-25T00:18:19;100270.56;;;7.58;75.06
80323;BME280;69636;52.372;13.610;2023-04-25T00:20:46;100264.91;;;7.53;74.69
80323;BME280;69636;52.372;13.610;2023-04-25T00:23:13;100266.19;;;7.49;73.99
80323;BME280;69636;52.372;13.610;2023-04-25T00:25:39;100276.13;;;7.55;72.65
80323;BME280;69636;52.372;13.610;2023-04-25T00:28:05;100271.19;;;7.52;73.20
80323;BME280;69636;52.372;13.610;2023-04-25T00:30:32;100271.13;;;7.62;72.80
80323;BME280;69636;52.372;13.610;2023-04-25T00:32:58;100267.69;;;7.52;72.71
80323;BME280;69636;52.372;13.610;2023-04-25T00:35:24;100271.69;;;7.56;72.02
80323;BME280;69636;52.372;13.610;2023-04-25T00:37:50;100277.66;;;7.58;71.51
80323;BME280;69636;52.372;13.610;2023-04-25T00:40:17;100274.78;;;7.51;72.12
80323;BME280;69636;52.372;13.610;2023-04-25T00:42:44;100272.28;;;7.49;72.19
80323;BME280;69636;52.372;13.610;2023-04-25T00:45:13;100274.25;;;7.47;71.64
80323;BME280;69636;52.372;13.610;2023-04-25T00:47:39;100273.41;;;7.47;71.78
80323;BME280;69636;52.372;13.610;2023-04-25T00:50:08;100274.53;;;7.44;71.76
80323;BME280;69636;52.372;13.610;2023-04-25T00:52:34;100282.59;;;7.43;72.68
80323;BME280;69636;52.372;13.610;2023-04-25T00:55:01;100281.50;;;7.36;71.74
80323;BME280;69636;52.372;13.610;2023-04-25T00:57:29;100277.03;;;7.46;72.16
80323;BME280;69636;52.372;13.610;2023-04-25T00:59:55;100281.75;;;7.42;72.26
80323;BME280;69636;52.372;13.610;2023-04-25T01:02:22;100276.88;;;7.47;72.57
80323;BME280;69636;52.372;13.610;2023-04-25T01:04:48;100272.28;;;7.49;73.34
80323;BME280;69636;52.372;13.610;2023-04-25T01:07:14;100267.94;;;7.58;72.92
80323;BME280;69636;52.372;13.610;2023-04-25T01:09:41;100273.91;;;7.60;73.14
80323;BME280;69636;52.372;13.610;2023-04-25T01:12:07;100266.63;;;7.72;73.25
80323;BME280;69636;52.372;13.610;2023-04-25T01:14:34;100271.22;;;7.70;72.37
80323;BME280;69636;52.372;13.610;2023-04-25T01:17:01;100270.50;;;7.77;73.40
80323;BME280;69636;52.372;13.610;2023-04-25T01:19:27;100270.03;;;7.82;73.41
80323;BME280;69636;52.372;13.610;2023-04-25T01:21:55;100266.94;;;7.87;72.61
80323;BME280;69636;52.372;13.610;2023-04-25T01:24:21;100272.38;;;7.85;72.81
80323;BME280;69636;52.372;13.610;2023-04-25T01:26:48;100265.38;;;7.94;72.55
80323;BME280;69636;52.372;13.610;2023-04-25T01:29:15;100269.84;;;7.93;72.06
80323;BME280;69636;52.372;13.610;2023-04-25T01:31:41;100270.47;;;8.05;72.00
80323;BME280;69636;52.372;13.610;2023-04-25T01:34:08;100268.28;;;8.00;72.04
80323;BME280;69636;52.372;13.610;2023-04-25T01:36:34;100275.66;;;7.97;72.24
80323;BME280;69636;52.372;13.610;2023-04-25T01:39:02;100262.66;;;7.86;72.63
80323;BME280;69636;52.372;13.610;2023-04-25T01:41:28;100264.25;;;7.96;72.03
80323;BME280;69636;52.372;13.610;2023-04-25T01:43:55;100273.16;;;7.95;72.28
80323;BME280;69636;52.372;13.610;2023-04-25T01:46:21;100268.56;;;7.97;72.52
80323;BME280;69636;52.372;13.610;2023-04-25T01:48:47;100270.19;;;7.80;72.13
80323;BME280;69636;52.372;13.610;2023-04-25T01:51:14;100264.56;;;7.93;71.87
80323;BME280;69636;52.372;13.610;2023-04-25T01:53:40;100272.78;;;7.90;72.11
80323;BME280;69636;52.372;13.610;2023-04-25T01:56:07;100265.94;;;7.97;71.89
80323;BME280;69636;52.372;13.610;2023-04-25T01:58:34;100273.50;;;7.82;72.59
80323;BME280;69636;52.372;13.610;2023-04-25T02:01:00;100275.81;;;7.95;72.28
80323;BME280;69636;52.372;13.610;2023-04-25T02:03:26;100271.81;;;7.91;72.10
80323;BME280;69636;52.372;13.610;2023-04-25T02:05:52;100281.53;;;7.91;72.31
80323;BME280;69636;52.372;13.610;2023-04-25T02:08:18;100277.78;;;7.93;72.00
80323;BME280;69636;52.372;13.610;2023-04-25T02:10:44;100267.25;;;7.83;72.67
80323;BME280;69636;52.372;13.610;2023-04-25T02:13:12;100276.28;;;7.81;72.15
80323;BME280;69636;52.372;13.610;2023-04-25T02:15:38;100279.03;;;7.89;72.61
80323;BME280;69636;52.372;13.610;2023-04-25T02:18:04;100277.66;;;7.85;72.16
80323;BME280;69636;52.372;13.610;2023-04-25T02:20:30;100274.72;;;7.88;72.84
80323;BME280;69636;52.372;13.610;2023-04-25T02:22:56;100278.75;;;7.92;72.13
80323;BME280;69636;52.372;13.610;2023-04-25T02:25:22;100276.09;;;7.92;73.00
80323;BME280;69636;52.372;13.610;2023-04-25T02:27:49;100275.53;;;7.71;73.17
80323;BME280;69636;52.372;13.610;2023-04-25T02:30:16;100280.94;;;7.79;72.81
80323;BME280;69636;52.372;13.610;2023-04-25T02:32:42;100276.91;;;7.75;72.96
80323;BME280;69636;52.372;13.610;2023-04-25T02:35:09;100277.66;;;7.85;72.10
80323;BME280;69636;52.372;13.610;2023-04-25T02:37:37;100277.66;;;7.85;72.00
80323;BME280;69636;52.372;13.610;2023-04-25T02:40:04;100271.00;;;7.81;72.02
80323;BME280;69636;52.372;13.610;2023-04-25T02:42:31;100278.22;;;7.89;72.08
80323;BME280;69636;52.372;13.610;2023-04-25T02:44:57;100265.56;;;7.82;72.03
80323;BME280;69636;52.372;13.610;2023-04-25T02:47:25;100273.06;;;7.87;71.98
80323;BME280;69636;52.372;13.610;2023-04-25T02:49:51;100269.66;;;7.77;72.70
80323;BME280;69636;52.372;13.610;2023-04-25T02:52:17;100275.41;;;7.63;72.01
80323;BME280;69636;52.372;13.610;2023-04-25T02:54:43;100271.00;;;7.81;72.49
80323;BME280;69636;52.372;13.610;2023-04-25T02:57:09;100269.34;;;7.80;72.57
80323;BME280;69636;52.372;13.610;2023-04-25T02:59:35;100266.56;;;7.81;72.37
80323;BME280;69636;52.372;13.610;2023-04-25T03:02:02;100270.50;;;7.77;71.99
80323;BME280;69636;52.372;13.610;2023-04-25T03:04:30;100263.69;;;7.75;72.04
80323;BME280;69636;52.372;13.610;2023-04-25T03:06:56;100264.97;;;7.71;72.15
80323;BME280;69636;52.372;13.610;2023-04-25T03:09:22;100267.25;;;7.83;71.84
80323;BME280;69636;52.372;13.610;2023-04-25T03:11:48;100265.41;;;7.66;73.01
80323;BME280;69636;52.372;13.610;2023-04-25T03:14:14;100265.34;;;7.76;72.29
80323;BME280;69636;52.372;13.610;2023-04-25T03:16:40;100264.06;;;7.80;72.19
80323;BME280;69636;52.372;13.610;2023-04-25T03:19:06;100266.34;;;7.75;72.40
80323;BME280;69636;52.372;13.610;2023-04-25T03:21:35;100268.00;;;7.76;72.65
80323;BME280;69636;52.372;13.610;2023-04-25T03:24:03;100266.19;;;7.76;72.92
80323;BME280;69636;52.372;13.610;2023-04-25T03:26:29;100261.75;;;7.77;72.37
80323;BME280;69636;52.372;13.610;2023-04-25T03:28:55;100261.06;;;7.75;72.81
80323;BME280;69636;52.372;13.610;2023-04-25T03:31:21;100259.72;;;7.61;72.18
80323;BME280;69636;52.372;13.610;2023-04-25T03:33:48;100265.94;;;7.70;73.49
80323;BME280;69636;52.372;13.610;2023-04-25T03:36:14;100263.03;;;7.63;72.44
80323;BME280;69636;52.372;13.610;2023-04-25T03:38:41;100273.28;;;7.76;72.60
80323;BME280;69636;52.372;13.610;2023-04-25T03:41:07;100267.56;;;7.53;73.06
80323;BME280;69636;52.372;13.610;2023-04-25T03:43:34;100270.41;;;7.60;72.91
80323;BME280;69636;52.372;13.610;2023-04-25T03:46:00;100271.66;;;7.65;72.54
80323;BME280;69636;52.372;13.610;2023-04-25T03:48:26;100276.00;;;7.57;72.85
80323;BME280;69636;52.372;13.610;2023-04-25T03:50:53;100269.84;;;7.66;72.80
80323;BME280;69636;52.372;13.610;2023-04-25T03:53:19;100275.03;;;7.58;72.93
80323;BME280;69636;52.372;13.610;2023-04-25T03:55:47;100280.53;;;7.74;72.32
80323;BME280;69636;52.372;13.610;2023-04-25T03:58:13;100283.88;;;7.66;72.49
80323;BME280;69636;52.372;13.610;2023-04-25T04:00:39;100281.53;;;7.63;72.73
80323;BME280;69636;52.372;13.610;2023-04-25T04:03:05;100277.38;;;7.61;72.75
80323;BME280;69636;52.372;13.610;2023-04-25T04:05:32;100283.03;;;7.75;72.68
80323;BME280;69636;52.372;13.610;2023-04-25T04:07:58;100285.19;;;7.80;72.80
80323;BME280;69636;52.372;13.610;2023-04-25T04:10:24;100287.47;;;7.75;73.02
80323;BME280;69636;52.372;13.610;2023-04-25T04:12:52;100281.22;;;7.76;72.95
80323;BME280;69636;52.372;13.610;2023-04-25T04:15:18;100293.19;;;7.70;73.15
80323;BME280;69636;52.372;13.610;2023-04-25T04:17:44;100294.13;;;7.79;73.20
80323;BME280;69636;52.372;13.610;2023-04-25T04:20:10;100298.81;;;7.85;72.55
80323;BME280;69636;52.372;13.610;2023-04-25T04:22:36;100291.50;;;7.79;72.25
80323;BME280;69636;52.372;13.610;2023-04-25T04:25:02;100299.72;;;7.76;72.64
80323;BME280;69636;52.372;13.610;2023-04-25T04:27:29;100300.31;;;7.88;72.14
80323;BME280;69636;52.372;13.610;2023-04-25T04:29:56;100298.25;;;7.81;72.21
80323;BME280;69636;52.372;13.610;2023-04-25T04:32:22;100308.00;;;7.81;72.83
80323;BME280;69636;52.372;13.610;2023-04-25T04:34:48;100306.56;;;7.96;71.97
80323;BME280;69636;52.372;13.610;2023-04-25T04:37:14;100311.31;;;7.93;71.93
80323;BME280;69636;52.372;13.610;2023-04-25T04:39:41;100316.13;;;7.70;73.02
80323;BME280;69636;52.372;13.610;2023-04-25T04:42:07;100303.22;;;7.94;72.02
80323;BME280;69636;52.372;13.610;2023-04-25T04:44:33;100305.19;;;7.92;72.23
80323;BME280;69636;52.372;13.610;2023-04-25T04:47:00;100303.25;;;7.84;72.36
80323;BME280;69636;52.372;13.610;2023-04-25T04:49:27;100308.25;;;7.88;72.28
80323;BME280;69636;52.372;13.610;2023-04-25T04:51:53;100307.72;;;7.84;72.39
80323;BME280;69636;52.372;13.610;2023-04-25T04:54:19;100302.56;;;8.10;72.27
80323;BME280;69636;52.372;13.610;2023-04-25T04:56:45;100310.19;;;7.95;72.26
80323;BME280;69636;52.372;13.610;2023-04-25T04:59:11;100311.75;;;8.06;72.03
80323;BME280;69636;52.372;13.610;2023-04-25T05:01:37;100310.47;;;7.92;72.60
80323;BME280;69636;52.372;13.610;2023-04-25T05:04:05;100306.41;;;7.98;72.56
80323;BME280;69636;52.372;13.610;2023-04-25T05:06:31;100305.97;;;8.02;72.79
80323;BME280;69636;52.372;13.610;2023-04-25T05:08:57;100312.69;;;7.97;72.07
80323;BME280;69636;52.372;13.610;2023-04-25T05:11:24;100308.91;;;7.99;71.60
80323;BME280;69636;52.372;13.610;2023-04-25T05:13:51;100314.66;;;8.12;72.06
80323;BME280;69636;52.372;13.610;2023-04-25T05:16:17;100318.22;;;8.03;72.08
80323;BME280;69636;52.372;13.610;2023-04-25T05:18:44;100317.97;;;7.97;72.50
80323;BME280;69636;52.372;13.610;2023-04-25T05:21:11;100318.66;;;7.99;72.41
80323;BME280;69636;52.372;13.610;2023-04-25T05:23:37;100323.47;;;8.31;72.75
80323;BME280;69636;52.372;13.610;2023-04-25T05:26:04;100328.28;;;8.45;72.07
80323;BME280;69636;52.372;13.610;2023-04-25T05:28:30;100324.78;;;8.17;72.04
80323;BME280;69636;52.372;13.610;2023-04-25T05:30:56;100328.06;;;8.29;71.59
80323;BME280;69636;52.372;13.610;2023-04-25T05:33:22;100328.22;;;8.27;71.94
80323;BME280;69636;52.372;13.610;2023-04-25T05:35:50;100321.91;;;8.38;71.42
80323;BME280;69636;52.372;13.610;2023-04-25T05:38:17;100323.72;;;8.37;71.17
80323;BME280;69636;52.372;13.610;2023-04-25T05:40:43;100330.00;;;8.72;70.87
80323;BME280;69636;52.372;13.610;2023-04-25T05:43:10;100327.66;;;8.69;70.62
80323;BME280;69636;52.372;13.610;2023-04-25T05:45:36;100329.88;;;8.73;70.12
80323;BME280;69636;52.372;13.610;2023-04-25T05:48:02;100322.91;;;8.55;70.53
80323;BME280;69636;52.372;13.610;2023-04-25T05:50:28;100334.94;;;8.49;70.90
80323;BME280;69636;52.372;13.610;2023-04-25T05:52:54;100337.88;;;8.64;70.50
80323;BME280;69636;52.372;13.610;2023-04-25T05:55:22;100334.34;;;8.55;71.27
80323;BME280;69636;52.372;13.610;2023-04-25T05:57:48;100334.34;;;8.55;70.75
80323;BME280;69636;52.372;13.610;2023-04-25T06:00:14;100342.13;;;8.57;70.66
80323;BME280;69636;52.372;13.610;2023-04-25T06:02:40;100343.53;;;8.51;71.36
80323;BME280;69636;52.372;13.610;2023-04-25T06:05:08;100342.28;;;8.55;71.03
80323;BME280;69636;52.372;13.610;2023-04-25T06:07:34;100339.00;;;8.61;71.46
80323;BME280;69636;52.372;13.610;2023-04-25T06:10:00;100346.28;;;8.77;71.08
80323;BME280;69636;52.372;13.610;2023-04-25T06:12:27;100351.25;;;8.44;71.50
80323;BME280;69636;52.372;13.610;2023-04-25T06:14:53;100350.66;;;8.68;70.68
80323;BME280;69636;52.372;13.610;2023-04-25T06:17:19;100347.72;;;8.71;71.10
80323;BME280;69636;52.372;13.610;2023-04-25T06:19:45;100346.50;;;8.66;71.76
80323;BME280;69636;52.372;13.610;2023-04-25T06:22:12;100349.28;;;8.64;72.03
80323;BME280;69636;52.372;13.610;2023-04-25T06:24:38;100352.78;;;8.82;71.45
80323;BME280;69636;52.372;13.610;2023-04-25T06:27:04;100349.75;;;8.77;71.60
80323;BME280;69636;52.372;13.610;2023-04-25T06:29:31;100352.09;;;8.80;71.32
80323;BME280;69636;52.372;13.610;2023-04-25T06:31:57;100350.59;;;8.78;70.94
80323;BME280;69636;52.372;13.610;2023-04-25T06:34:24;100354.81;;;8.71;71.28
80323;BME280;69636;52.372;13.610;2023-04-25T06:36:50;100351.03;;;8.91;70.76
80323;BME280;69636;52.372;13.610;2023-04-25T06:39:16;100353.81;;;8.90;71.02
80323;BME280;69636;52.372;13.610;2023-04-25T06:41:42;100358.81;;;8.93;71.02
80323;BME280;69636;52.372;13.610;2023-04-25T06:44:08;100352.63;;;8.66;71.66
80323;BME280;69636;52.372;13.610;2023-04-25T06:46:35;100354.41;;;8.83;70.89
80323;BME280;69636;52.372;13.610;2023-04-25T06:49:01;100356.25;;;9.01;69.99
80323;BME280;69636;52.372;13.610;2023-04-25T06:51:28;100350.78;;;8.84;70.64
80323;BME280;69636;52.372;13.610;2023-04-25T06:53:54;100355.25;;;9.02;70.43
80323;BME280;69636;52.372;13.610;2023-04-25T06:56:20;100352.03;;;9.16;69.76
80323;BME280;69636;52.372;13.610;2023-04-25T06:58:46;100355.16;;;9.11;70.57
80323;BME280;69636;52.372;13.610;2023-04-25T07:01:12;100349.31;;;9.26;69.73
80323;BME280;69636;52.372;13.610;2023-04-25T07:03:39;100355.28;;;9.28;70.12
80323;BME280;69636;52.372;13.610;2023-04-25T07:06:05;100363.09;;;9.29;68.87
80323;BME280;69636;52.372;13.610;2023-04-25T07:08:32;100359.28;;;9.06;70.11
80323;BME280;69636;52.372;13.610;2023-04-25T07:10:58;100360.94;;;9.07;70.09
80323;BME280;69636;52.372;13.610;2023-04-25T07:13:24;100359.78;;;8.92;70.56
80323;BME280;69636;52.372;13.610;2023-04-25T07:15:51;100361.59;;;8.91;70.75
80323;BME280;69636;52.372;13.610;2023-04-25T07:18:17;100366.31;;;8.97;70.80
80323;BME280;69636;52.372;13.610;2023-04-25T07:20:44;100364.88;;;9.03;70.71
80323;BME280;69636;52.372;13.610;2023-04-25T07:23:10;100368.19;;;9.05;70.57
80323;BME280;69636;52.372;13.610;2023-04-25T07:25:36;100375.16;;;9.06;70.87
80323;BME280;69636;52.372;13.610;2023-04-25T07:28:02;100369.56;;;9.09;70.49
80323;BME280;69636;52.372;13.610;2023-04-25T07:30:29;100373.19;;;9.08;70.93
80323;BME280;69636;52.372;13.610;2023-04-25T07:32:55;100380.34;;;9.15;70.41
80323;BME280;69636;52.372;13.610;2023-04-25T07:35:21;100388.09;;;9.09;70.31
80323;BME280;69636;52.372;13.610;2023-04-25T07:37:48;100392.31;;;9.02;69.95
80323;BME280;69636;52.372;13.610;2023-04-25T07:40:14;100383.09;;;8.88;70.85
80323;BME280;69636;52.372;13.610;2023-04-25T07:42:40;100383.22;;;8.87;71.08
80323;BME280;69636;52.372;13.610;2023-04-25T07:45:07;100393.38;;;9.09;70.84
80323;BME280;69636;52.372;13.610;2023-04-25T07:47:33;100388.63;;;8.95;70.84
80323;BME280;69636;52.372;13.610;2023-04-25T07:49:59;100402.00;;;8.75;73.26
80323;BME280;69636;52.372;13.610;2023-04-25T07:52:26;100401.06;;;8.84;74.55
80323;BME280;69636;52.372;13.610;2023-04-25T07:54:53;100403.72;;;8.67;75.96
80323;BME280;69636;52.372;13.610;2023-04-25T07:57:19;100413.69;;;8.55;75.65
80323;BME280;69636;52.372;13.610;2023-04-25T07:59:45;100413.31;;;8.68;75.55
80323;BME280;69636;52.372;13.610;2023-04-25T08:02:11;100414.56;;;8.46;75.67
80323;BME280;69636;52.372;13.610;2023-04-25T08:04:37;100423.84;;;8.23;76.65
80323;BME280;69636;52.372;13.610;2023-04-25T08:07:04;100425.97;;;8.09;77.26
80323;BME280;69636;52.372;13.610;2023-04-25T08:09:30;100428.16;;;8.24;76.49
80323;BME280;69636;52.372;13.610;2023-04-25T08:11:57;100432.72;;;8.31;76.27
80323;BME280;69636;52.372;13.610;2023-04-25T08:14:23;100431.88;;;8.40;74.68
80323;BME280;69636;52.372;13.610;2023-04-25T08:16:49;100430.84;;;8.51;74.39
80323;BME280;69636;52.372;13.610;2023-04-25T08:19:15;100434.75;;;8.74;73.82
80323;BME280;69636;52.372;13.610;2023-04-25T08:21:41;100432.19;;;8.82;72.49
80323;BME280;69636;52.372;13.610;2023-04-25T08:24:08;100442.69;;;8.74;73.08
80323;BME280;69636;52.372;13.610;2023-04-25T08:26:34;100442.88;;;9.08;72.20
80323;BME280;69636;52.372;13.610;2023-04-25T08:29:01;100442.47;;;9.21;71.91
80323;BME280;69636;52.372;13.610;2023-04-25T08:31:27;100447.31;;;9.26;72.33
80323;BME280;69636;52.372;13.610;2023-04-25T08:33:53;100451.69;;;8.99;72.70
80323;BME280;69636;52.372;13.610;2023-04-25T08:36:19;100459.16;;;8.86;72.32
80323;BME280;69636;52.372;13.610;2023-04-25T08:38:45;100457.97;;;8.80;72.09
80323;BME280;69636;52.372;13.610;2023-04-25T08:41:12;100459.31;;;8.84;71.98
80323;BME280;69636;52.372;13.610;2023-04-25T08:43:42;100460.47;;;9.00;71.54
80323;BME280;69636;52.372;13.610;2023-04-25T08:46:11;100459.78;;;8.80;72.17
80323;BME280;69636;52.372;13.610;2023-04-25T08:48:40;100469.28;;;8.73;71.48
80323;BME280;69636;52.372;13.610;2023-04-25T08:51:07;100465.31;;;9.22;70.07
80323;BME280;69636;52.372;13.610;2023-04-25T08:53:34;100469.25;;;9.53;68.47
80323;BME280;69636;52.372;13.610;2023-04-25T08:56:01;100467.81;;;9.85;67.56
80323;BME280;69636;52.372;13.610;2023-04-25T08:58:28;100468.97;;;10.08;67.91
80323;BME280;69636;52.372;13.610;2023-04-25T09:00:54;100471.34;;;10.19;66.40
80323;BME280;69636;52.372;13.610;2023-04-25T09:03:21;100483.88;;;9.83;66.83
80323;BME280;69636;52.372;13.610;2023-04-25T09:05:48;100487.91;;;9.70;67.07
80323;BME280;69636;52.372;13.610;2023-04-25T09:08:14;100486.34;;;9.41;67.10
80323;BME280;69636;52.372;13.610;2023-04-25T09:10:41;100481.19;;;9.58;67.17
80323;BME280;69636;52.372;13.610;2023-04-25T09:13:08;100486.69;;;9.64;64.66
80323;BME280;69636;52.372;13.610;2023-04-25T09:15:46;100490.25;;;9.73;62.74
80323;BME280;69636;52.372;13.610;2023-04-25T09:18:13;100497.19;;;10.17;61.54
80323;BME280;69636;52.372;13.610;2023-04-25T09:20:42;100496.47;;;10.07;58.71
80323;BME280;69636;52.372;13.610;2023-04-25T09:23:09;100493.31;;;10.30;57.30
80323;BME280;69636;52.372;13.610;2023-04-25T09:25:35;100500.75;;;10.26;56.30
80323;BME280;69636;52.372;13.610;2023-04-25T09:28:04;100512.25;;;10.35;55.52
80323;BME280;69636;52.372;13.610;2023-04-25T09:30:31;100503.47;;;10.42;54.56
80323;BME280;69636;52.372;13.610;2023-04-25T09:33:04;100511.22;;;10.28;52.17
80323;BME280;69636;52.372;13.610;2023-04-25T09:35:35;100513.97;;;10.52;52.98
80323;BME280;69636;52.372;13.610;2023-04-25T09:38:07;100518.94;;;10.47;52.39
80323;BME280;69636;52.372;13.610;2023-04-25T09:40:33;100517.94;;;10.48;50.78
80323;BME280;69636;52.372;13.610;2023-04-25T09:42:59;100521.03;;;11.44;48.87
80323;BME280;69636;52.372;13.610;2023-04-25T09:45:25;100519.41;;;11.75;47.93
80323;BME280;69636;52.372;13.610;2023-04-25T09:47:55;100520.69;;;12.28;47.69
80323;BME280;69636;52.372;13.610;2023-04-25T09:50:21;100523.81;;;12.95;45.61
80323;BME280;69636;52.372;13.610;2023-04-25T09:53:03;100525.06;;;11.97;48.31
80323;BME280;69636;52.372;13.610;2023-04-25T09:55:31;100524.91;;;11.98;47.18
80323;BME280;69636;52.372;13.610;2023-04-25T09:58:03;100527.41;;;11.83;48.64
80323;BME280;69636;52.372;13.610;2023-04-25T10:00:30;100520.22;;;11.43;48.17
80323;BME280;69636;52.372;13.610;2023-04-25T10:02:57;100529.06;;;11.60;49.28
80323;BME280;69636;52.372;13.610;2023-04-25T10:05:27;100532.19;;;11.72;47.39
80323;BME280;69636;52.372;13.610;2023-04-25T10:07:54;100530.22;;;11.41;46.90
80323;BME280;69636;52.372;13.610;2023-04-25T10:10:22;100524.47;;;11.04;48.96
80323;BME280;69636;52.372;13.610;2023-04-25T10:12:50;100523.19;;;11.16;48.11
80323;BME280;69636;52.372;13.610;2023-04-25T10:15:16;100531.63;;;11.11;48.31
80323;BME280;69636;52.372;13.610;2023-04-25T10:17:43;100533.31;;;11.12;49.55
80323;BME280;69636;52.372;13.610;2023-04-25T10:20:10;100530.41;;;10.98;49.40
80323;BME280;69636;52.372;13.610;2023-04-25T10:22:38;100544.75;;;11.13;48.55
80323;BME280;69636;52.372;13.610;2023-04-25T10:25:06;100538.22;;;10.57;50.63
80323;BME280;69636;52.372;13.610;2023-04-25T10:27:34;100546.66;;;10.52;50.29
80323;BME280;69636;52.372;13.610;2023-04-25T10:30:01;100545.38;;;10.57;49.95
80323;BME280;69636;52.372;13.610;2023-04-25T10:32:27;100539.34;;;10.80;49.48
80323;BME280;69636;52.372;13.610;2023-04-25T10:34:53;100538.34;;;10.81;48.94
80323;BME280;69636;52.372;13.610;2023-04-25T10:37:21;100544.59;;;10.64;50.77
80323;BME280;69636;52.372;13.610;2023-04-25T10:39:47;100544.91;;;10.69;50.87
80323;BME280;69636;52.372;13.610;2023-04-25T10:42:13;100547.72;;;10.60;49.83
80323;BME280;69636;52.372;13.610;2023-04-25T10:44:40;100555.22;;;10.38;50.39
80323;BME280;69636;52.372;13.610;2023-04-25T10:47:34;100552.16;;;10.07;49.83
80323;BME280;69636;52.372;13.610;2023-04-25T10:50:04;100552.53;;;10.12;49.13
80323;BME280;69636;52.372;13.610;2023-04-25T10:52:33;100556.38;;;10.18;48.58
80323;BME280;69636;52.372;13.610;2023-04-25T10:54:59;100560.84;;;10.17;48.82
80323;BME280;69636;52.372;13.610;2023-04-25T10:57:31;100557.88;;;10.38;48.08
80323;BME280;69636;52.372;13.610;2023-04-25T11:00:00;100552.91;;;10.43;47.08
80323;BME280;69636;52.372;13.610;2023-04-25T11:02:27;100560.31;;;10.66;46.38
80323;BME280;69636;52.372;13.610;2023-04-25T11:04:54;100559.75;;;10.80;46.00
80323;BME280;69636;52.372;13.610;2023-04-25T11:07:26;100556.28;;;10.87;45.96
80323;BME280;69636;52.372;13.610;2023-04-25T11:09:54;100558.19;;;10.69;46.41
80323;BME280;69636;52.372;13.610;2023-04-25T11:12:20;100557.25;;;10.78;45.36
80323;BME280;69636;52.372;13.610;2023-04-25T11:14:46;100559.13;;;10.94;45.85
80323;BME280;69636;52.372;13.610;2023-04-25T11:17:14;100564.66;;;11.09;45.67
80323;BME280;69636;52.372;13.610;2023-04-25T11:19:40;100560.63;;;10.97;45.79
80323;BME280;69636;52.372;13.610;2023-04-25T11:22:06;100561.63;;;10.96;45.48
80323;BME280;69636;52.372;13.610;2023-04-25T11:24:33;100569.25;;;10.91;46.58
80323;BME280;69636;52.372;13.610;2023-04-25T11:27:01;100569.91;;;10.93;46.52
80323;BME280;69636;52.372;13.610;2023-04-25T11:29:27;100572.91;;;10.90;46.70
80323;BME280;69636;52.372;13.610;2023-04-25T11:31:54;100578.59;;;11.03;45.85
80323;BME280;69636;52.372;13.610;2023-04-25T11:34:22;100577.22;;;10.91;44.13
80323;BME280;69636;52.372;13.610;2023-04-25T11:36:48;100577.22;;;10.91;44.23
80323;BME280;69636;52.372;13.610;2023-04-25T11:39:14;100588.72;;;10.65;44.87
80323;BME280;69636;52.372;13.610;2023-04-25T11:41:41;100584.03;;;10.59;44.96
80323;BME280;69636;52.372;13.610;2023-04-25T11:44:07;100589.22;;;10.69;46.25
80323;BME280;69636;52.372;13.610;2023-04-25T11:46:33;100582.13;;;10.77;45.55
80323;BME280;69636;52.372;13.610;2023-04-25T11:49:00;100591.28;;;10.83;47.33
80323;BME280;69636;52.372;13.610;2023-04-25T11:51:27;100592.03;;;11.01;45.56
80323;BME280;69636;52.372;13.610;2023-04-25T11:53:53;100600.88;;;11.18;46.24
80323;BME280;69636;52.372;13.610;2023-04-25T11:56:20;100605.56;;;11.24;45.18
80323;BME280;69636;52.372;13.610;2023-04-25T11:58:56;100600.09;;;10.83;46.47
80323;BME280;69636;52.372;13.610;2023-04-25T12:01:27;100612.25;;;10.60;46.94
80323;BME280;69636;52.372;13.610;2023-04-25T12:03:54;100615.28;;;10.22;46.93
80323;BME280;69636;52.372;13.610;2023-04-25T12:06:20;100621.84;;;10.17;47.26
80323;BME280;69636;52.372;13.610;2023-04-25T12:09:00;100632.19;;;10.03;46.67
80323;BME280;69636;52.372;13.610;2023-04-25T12:11:27;100626.34;;;9.99;47.38
80323;BME280;69636;52.372;13.610;2023-04-25T12:13:53;100632.72;;;9.88;46.46
80323;BME280;69636;52.372;13.610;2023-04-25T12:16:19;100632.56;;;9.72;45.43
80323;BME280;69636;52.372;13.610;2023-04-25T12:18:45;100636.41;;;10.13;45.89
80323;BME280;69636;52.372;13.610;2023-04-25T12:21:11;100638.03;;;10.24;44.89
80323;BME280;69636;52.372;13.610;2023-04-25T12:23:38;100635.81;;;10.19;43.37
80323;BME280;69636;52.372;13.610;2023-04-25T12:26:06;100629.97;;;10.34;42.82
80323;BME280;69636;52.372;13.610;2023-04-25T12:28:32;100635.66;;;10.65;43.78
80323;BME280;69636;52.372;13.610;2023-04-25T12:31:00;100635.13;;;10.87;44.07
80323;BME280;69636;52.372;13.610;2023-04-25T12:33:28;100633.78;;;10.57;42.48
80323;BME280;69636;52.372;13.610;2023-04-25T12:35:54;100637.53;;;10.72;42.88
80323;BME280;69636;52.372;13.610;2023-04-25T12:38:22;100637.94;;;10.85;43.44
80323;BME280;69636;52.372;13.610;2023-04-25T12:40:48;100642.72;;;10.82;43.83
80323;BME280;69636;52.372;13.610;2023-04-25T12:43:15;100638.75;;;11.12;43.34
80323;BME280;69636;52.372;13.610;2023-04-25T12:45:41;100635.66;;;12.07;40.64